createdAt,value
2019-05-01T00:01:13.769Z,5.87
2019-05-01T00:03:19.058Z,5.65
2019-05-01T00:05:30.511Z,6.05
2019-05-01T00:07:35.885Z,5.28
2019-05-01T00:09:39.480Z,5.65
2019-05-01T00:13:46.361Z,6.67
2019-05-01T00:15:51.157Z,5.28
2019-05-01T00:17:54.733Z,5.58
2019-05-01T00:22:01.173Z,5.50
2019-05-01T00:26:07.605Z,5.67
2019-05-01T00:30:15.948Z,5.72
2019-05-01T00:32:19.626Z,5.22
2019-05-01T00:34:23.189Z,5.87
2019-05-01T00:38:29.581Z,5.78
2019-05-01T00:42:35.984Z,5.78
2019-05-01T00:46:42.368Z,6.92
2019-05-01T00:50:48.824Z,7.05
2019-05-01T00:52:52.387Z,6.00
2019-05-01T00:57:35.345Z,6.60
2019-05-01T00:59:49.664Z,6.72
2019-05-01T01:02:04.176Z,6.87
2019-05-01T01:04:08.245Z,6.28
2019-05-01T01:06:12.366Z,7.00
2019-05-01T01:08:16.481Z,6.67
2019-05-01T01:10:20.434Z,6.67
2019-05-01T01:12:24.157Z,7.05
2019-05-01T01:14:27.749Z,7.00
2019-05-01T01:18:34.126Z,6.60
2019-05-01T01:22:40.636Z,7.15
2019-05-01T01:26:47.221Z,7.00
2019-05-01T01:28:50.788Z,7.10
2019-05-01T01:32:58.971Z,7.55
2019-05-01T01:35:02.740Z,7.22
2019-05-01T01:37:06.368Z,7.10
2019-05-01T01:39:10.094Z,7.40
2019-05-01T01:41:13.903Z,7.28
2019-05-01T01:43:34.535Z,7.20
2019-05-01T01:45:39.798Z,7.62
2019-05-01T01:48:01.725Z,7.50
2019-05-01T01:50:07.836Z,7.37
2019-05-01T01:52:11.861Z,7.55
2019-05-01T01:54:15.665Z,7.37
2019-05-01T01:56:19.364Z,7.80
2019-05-01T01:58:23.910Z,7.85
2019-05-01T02:00:45.477Z,7.20
2019-05-01T02:02:50.742Z,7.50
2019-05-01T02:05:04.883Z,7.65
2019-05-01T02:07:08.509Z,7.75
2019-05-01T02:09:12.450Z,8.68
2019-05-01T02:11:16.088Z,7.42
2019-05-01T02:13:19.798Z,8.15
2019-05-01T02:15:23.480Z,7.58
2019-05-01T02:17:27.126Z,7.92
2019-05-01T02:19:30.759Z,8.08
2019-05-01T02:21:34.477Z,8.68
2019-05-01T02:23:38.045Z,8.03
2019-05-01T02:27:48.066Z,8.20
2019-05-01T02:29:53.817Z,9.55
2019-05-01T02:31:58.948Z,7.97
2019-05-01T02:34:03.577Z,8.15
2019-05-01T02:36:07.778Z,8.65
2019-05-01T02:38:12.734Z,8.40
2019-05-01T02:40:36.989Z,8.68
2019-05-01T02:44:47.215Z,8.58
2019-05-01T02:46:53.377Z,8.30
2019-05-01T02:49:05.991Z,9.13
2019-05-01T02:51:10.443Z,9.23
2019-05-01T02:53:14.977Z,8.75
2019-05-01T02:55:20.470Z,9.58
2019-05-01T02:57:25.611Z,10.35
2019-05-01T02:59:31.379Z,9.43
2019-05-01T03:01:46.655Z,10.48
2019-05-01T03:03:42.747Z,10.38
2019-05-01T03:05:46.452Z,9.98
2019-05-01T03:07:50.285Z,9.85
2019-05-01T03:09:54.389Z,9.35
2019-05-01T03:12:00.234Z,10.75
2019-05-01T03:14:04.946Z,10.25
2019-05-01T03:16:10.810Z,9.78
2019-05-01T03:18:16.045Z,11.18
2019-05-01T03:20:21.428Z,10.20
2019-05-01T03:22:44.949Z,10.43
2019-05-01T03:24:48.661Z,10.55
2019-05-01T03:26:52.417Z,10.25
2019-05-01T03:28:56.128Z,10.40
2019-05-01T03:30:59.706Z,10.93
2019-05-01T03:35:07.397Z,10.38
2019-05-01T03:37:11.032Z,10.63
2019-05-01T03:39:16.052Z,11.25
2019-05-01T03:41:20.095Z,11.48
2019-05-01T03:43:24.854Z,11.57
2019-05-01T03:45:29.131Z,11.22
2019-05-01T03:47:32.898Z,12.98
2019-05-01T03:49:36.806Z,14.40
2019-05-01T03:51:40.942Z,13.05
2019-05-01T03:53:44.642Z,11.55
2019-05-01T03:55:48.617Z,12.20
2019-05-01T03:57:52.426Z,11.35
2019-05-01T03:59:56.458Z,10.60
2019-05-01T04:02:32.111Z,10.43
2019-05-01T04:04:25.308Z,9.80
2019-05-01T04:06:29.048Z,10.70
2019-05-01T04:08:33.478Z,11.53
2019-05-01T04:10:37.417Z,11.18
2019-05-01T04:12:42.032Z,10.53
2019-05-01T04:14:45.879Z,10.90
2019-05-01T04:16:51.661Z,11.43
2019-05-01T04:18:55.480Z,10.25
2019-05-01T04:20:59.267Z,10.82
2019-05-01T04:23:03.062Z,10.63
2019-05-01T04:25:08.078Z,10.72
2019-05-01T04:27:13.469Z,11.30
2019-05-01T04:29:19.128Z,10.55
2019-05-01T04:31:27.545Z,10.75
2019-05-01T04:33:31.976Z,10.53
2019-05-01T04:35:49.160Z,10.25
2019-05-01T04:37:53.178Z,10.85
2019-05-01T04:39:57.003Z,9.85
2019-05-01T04:42:00.678Z,10.43
2019-05-01T04:44:05.024Z,10.58
2019-05-01T04:46:08.813Z,10.55
2019-05-01T04:48:13.696Z,10.10
2019-05-01T04:50:17.606Z,11.25
2019-05-01T04:52:21.669Z,10.90
2019-05-01T04:54:25.692Z,11.22
2019-05-01T04:56:29.420Z,10.03
2019-05-01T04:58:33.337Z,10.98
2019-05-01T05:00:37.070Z,11.57
2019-05-01T05:02:42.635Z,10.10
2019-05-01T05:04:46.341Z,10.23
2019-05-01T05:06:51.449Z,10.68
2019-05-01T05:08:55.352Z,11.57
2019-05-01T05:11:01.132Z,12.18
2019-05-01T05:13:15.393Z,12.35
2019-05-01T05:15:32.762Z,12.37
2019-05-01T05:17:36.503Z,12.10
2019-05-01T05:19:40.144Z,11.57
2019-05-01T05:21:43.887Z,11.38
2019-05-01T05:23:48.158Z,11.43
2019-05-01T05:25:52.397Z,10.85
2019-05-01T05:27:57.445Z,11.43
2019-05-01T05:30:02.345Z,10.82
2019-05-01T05:32:07.781Z,10.98
2019-05-01T05:34:14.114Z,11.55
2019-05-01T05:36:19.233Z,10.60
2019-05-01T05:38:32.638Z,10.85
2019-05-01T05:40:37.719Z,11.65
2019-05-01T05:42:41.350Z,10.30
2019-05-01T05:44:46.567Z,10.35
2019-05-01T05:46:50.210Z,10.58
2019-05-01T05:48:53.868Z,10.70
2019-05-01T05:51:16.352Z,10.80
2019-05-01T05:53:24.482Z,11.05
2019-05-01T05:55:34.803Z,11.08
2019-05-01T05:57:41.754Z,10.45
2019-05-01T05:59:55.236Z,9.90
2019-05-01T06:02:03.558Z,9.28
2019-05-01T06:04:21.104Z,9.18
2019-05-01T06:06:41.284Z,8.80
2019-05-01T06:08:46.759Z,11.30
2019-05-01T06:10:53.507Z,10.70
2019-05-01T06:13:10.973Z,10.00
2019-05-01T06:15:19.330Z,10.18
2019-05-01T06:17:28.426Z,9.98
2019-05-01T06:19:35.094Z,9.10
2019-05-01T06:21:59.002Z,10.18
2019-05-01T06:24:10.672Z,9.13
2019-05-01T06:26:37.282Z,9.68
2019-05-01T06:28:36.616Z,8.78
2019-05-01T06:30:42.101Z,8.33
2019-05-01T06:32:45.932Z,8.25
2019-05-01T06:34:49.496Z,8.68
2019-05-01T06:38:56.789Z,8.18
2019-05-01T06:41:01.483Z,8.88
2019-05-01T06:43:05.261Z,8.75
2019-05-01T06:45:12.999Z,8.60
2019-05-01T06:47:20.505Z,8.50
2019-05-01T06:49:38.840Z,8.25
2019-05-01T06:51:48.048Z,8.38
2019-05-01T06:53:52.552Z,8.78
2019-05-01T06:57:59.749Z,8.13
2019-05-01T07:00:08.209Z,8.25
2019-05-01T07:02:15.841Z,7.20
2019-05-01T07:04:19.150Z,8.23
2019-05-01T07:06:25.919Z,8.43
2019-05-01T07:08:29.570Z,7.50
2019-05-01T07:10:43.523Z,7.12
2019-05-01T07:12:39.910Z,7.47
2019-05-01T07:14:47.116Z,6.90
2019-05-01T07:16:49.569Z,7.05
2019-05-01T07:18:58.115Z,6.90
2019-05-01T07:21:00.238Z,6.35
2019-05-01T07:25:08.203Z,7.35
2019-05-01T07:27:11.853Z,6.25
2019-05-01T07:31:20.038Z,6.00
2019-05-01T07:33:24.080Z,6.05
2019-05-01T07:35:27.884Z,5.58
2019-05-01T07:37:31.649Z,5.30
2019-05-01T07:39:35.484Z,5.28
2019-05-01T07:41:39.215Z,4.95
2019-05-01T07:43:44.632Z,4.70
2019-05-01T07:45:52.900Z,4.92
2019-05-01T07:48:01.085Z,4.90
2019-05-01T07:50:06.153Z,4.55
2019-05-01T07:52:12.539Z,5.20
2019-05-01T07:54:15.415Z,4.40
2019-05-01T07:56:22.783Z,4.65
2019-05-01T07:58:24.888Z,5.08
2019-05-01T08:00:42.663Z,5.10
2019-05-01T08:02:46.366Z,5.40
2019-05-01T08:06:57.232Z,5.72
2019-05-01T08:08:58.225Z,5.78
2019-05-01T08:11:05.336Z,5.10
2019-05-01T08:13:07.245Z,5.30
2019-05-01T08:17:18.080Z,5.00
2019-05-01T08:19:22.053Z,5.42
2019-05-01T08:21:39.140Z,4.75
2019-05-01T08:23:46.934Z,3.67
2019-05-01T08:25:48.279Z,5.37
2019-05-01T08:27:56.369Z,4.97
2019-05-01T08:30:03.289Z,4.37
2019-05-01T08:32:24.935Z,4.62
2019-05-01T08:34:30.217Z,4.58
2019-05-01T08:36:33.915Z,3.67
2019-05-01T08:38:37.621Z,3.80
2019-05-01T08:40:41.216Z,3.50
2019-05-01T08:45:05.185Z,3.50
2019-05-01T08:47:11.701Z,3.80
2019-05-01T08:49:16.975Z,3.50
2019-05-01T08:51:20.573Z,3.80
2019-05-01T08:55:26.983Z,3.95
2019-05-01T08:59:35.165Z,4.20
2019-05-01T09:01:38.799Z,4.58
2019-05-01T09:05:45.202Z,4.40
2019-05-01T09:11:56.040Z,4.30
2019-05-01T09:16:03.867Z,4.60
2019-05-01T09:18:07.444Z,4.45
2019-05-01T09:22:14.328Z,4.83
2019-05-01T09:24:18.032Z,4.67
2019-05-01T09:26:45.307Z,4.55
2019-05-01T09:29:05.801Z,4.90
2019-05-01T09:31:13.776Z,4.92
2019-05-01T09:33:17.525Z,5.08
2019-05-01T09:35:21.304Z,5.40
2019-05-01T09:37:24.862Z,5.47
2019-05-01T09:41:38.474Z,5.67
2019-05-01T09:43:37.848Z,5.65
2019-05-01T09:47:44.371Z,5.58
2019-05-01T09:49:48.855Z,5.83
2019-05-01T09:52:11.203Z,4.92
2019-05-01T09:54:16.546Z,5.28
2019-05-01T09:56:21.752Z,5.45
2019-05-01T09:58:25.349Z,6.30
2019-05-01T10:02:33.428Z,6.15
2019-05-01T10:06:39.904Z,5.65
2019-05-01T10:10:46.350Z,5.80
2019-05-01T10:14:52.857Z,6.03
2019-05-01T10:16:56.462Z,5.65
2019-05-01T10:19:00.118Z,7.42
2019-05-01T10:23:07.871Z,6.92
2019-05-01T10:25:13.439Z,6.37
2019-05-01T10:27:18.818Z,6.80
2019-05-01T10:29:32.961Z,6.85
2019-05-01T10:31:55.977Z,7.50
2019-05-01T10:34:16.609Z,7.58
2019-05-01T10:36:30.829Z,7.45
2019-05-01T10:38:34.501Z,7.83
2019-05-01T10:40:38.076Z,8.13
2019-05-01T10:44:44.933Z,8.00
2019-05-01T10:48:51.342Z,8.90
2019-05-01T10:50:54.938Z,9.13
2019-05-01T10:55:01.482Z,9.78
2019-05-01T10:57:05.253Z,10.90
2019-05-01T10:59:08.924Z,12.33
2019-05-01T11:01:20.094Z,11.83
2019-05-01T11:03:23.771Z,11.80
2019-05-01T11:05:27.346Z,11.45
2019-05-01T11:09:33.784Z,11.88
2019-05-01T11:13:40.184Z,14.68
2019-05-01T11:15:43.769Z,14.07
2019-05-01T11:19:50.220Z,13.28
2019-05-01T11:21:53.974Z,13.48
2019-05-01T11:23:57.564Z,14.43
2019-05-01T11:26:01.195Z,13.40
2019-05-01T11:28:04.809Z,14.47
2019-05-01T11:30:09.024Z,14.43
2019-05-01T11:32:20.184Z,14.33
2019-05-01T11:34:41.774Z,16.32
2019-05-01T11:36:49.973Z,15.50
2019-05-01T11:38:55.260Z,14.75
2019-05-01T11:41:03.394Z,15.78
2019-05-01T11:43:07.728Z,15.50
2019-05-01T11:45:11.714Z,18.55
2019-05-01T11:47:15.330Z,16.70
2019-05-01T11:51:21.786Z,17.70
2019-05-01T11:53:25.365Z,17.27
2019-05-01T11:57:31.760Z,20.12
2019-05-01T12:01:38.240Z,20.72
2019-05-01T12:03:41.813Z,20.48
2019-05-01T12:07:48.186Z,24.35
2019-05-01T12:11:56.498Z,25.77
2019-05-01T12:14:00.097Z,23.55
2019-05-01T12:16:11.349Z,23.62
2019-05-01T12:18:14.926Z,24.30
2019-05-01T12:22:22.105Z,25.27
2019-05-01T12:26:28.472Z,22.85
2019-05-01T12:30:34.845Z,23.57
2019-05-01T12:34:41.230Z,23.47
2019-05-01T12:38:48.109Z,23.47
2019-05-01T12:40:53.322Z,22.52
2019-05-01T12:42:56.904Z,22.98
2019-05-01T12:47:11.080Z,23.27
2019-05-01T12:49:15.880Z,22.22
2019-05-01T12:51:19.651Z,22.37
2019-05-01T12:53:24.873Z,24.07
2019-05-01T12:55:30.172Z,23.67
2019-05-01T12:57:33.745Z,24.55
2019-05-01T13:01:40.146Z,25.43
2019-05-01T13:03:43.717Z,23.55
2019-05-01T13:07:52.369Z,25.35
2019-05-01T13:09:55.508Z,25.68
2019-05-01T13:11:59.106Z,25.80
2019-05-01T13:14:02.717Z,23.95
2019-05-01T13:16:06.444Z,23.75
2019-05-01T13:18:10.029Z,24.02
2019-05-01T13:22:16.767Z,25.65
2019-05-01T13:26:24.877Z,23.22
2019-05-01T13:28:30.115Z,24.92
2019-05-01T13:30:35.414Z,26.35
2019-05-01T13:32:40.692Z,26.55
2019-05-01T13:34:44.290Z,25.72
2019-05-01T13:38:50.685Z,26.45
2019-05-01T13:42:57.062Z,29.55
2019-05-01T13:47:03.649Z,26.25
2019-05-01T13:49:07.364Z,27.42
2019-05-01T13:51:12.581Z,26.68
2019-05-01T13:53:16.319Z,29.50
2019-05-01T13:55:20.235Z,27.50
2019-05-01T13:57:23.845Z,26.95
2019-05-01T13:59:27.504Z,27.02
2019-05-01T14:01:31.098Z,28.15
2019-05-01T14:05:37.501Z,29.60
2019-05-01T14:09:44.080Z,29.60
2019-05-01T14:11:47.734Z,28.70
2019-05-01T14:13:51.379Z,26.80
2019-05-01T14:15:54.962Z,25.95
2019-05-01T14:20:08.605Z,26.55
2019-05-01T14:22:16.653Z,27.75
2019-05-01T14:24:24.376Z,29.67
2019-05-01T14:26:27.965Z,28.95
2019-05-01T14:30:35.163Z,31.50
2019-05-01T14:34:41.679Z,33.45
2019-05-01T14:36:45.272Z,32.58
2019-05-01T14:40:51.749Z,32.45
2019-05-01T14:42:55.416Z,32.60
2019-05-01T14:44:59.061Z,33.10
2019-05-01T14:47:02.672Z,32.35
2019-05-01T14:49:06.682Z,34.18
2019-05-01T14:51:10.318Z,34.58
2019-05-01T14:53:13.897Z,35.03
2019-05-01T14:57:20.357Z,32.45
2019-05-01T14:59:23.937Z,29.92
2019-05-01T15:03:30.397Z,27.37
2019-05-01T15:05:34.815Z,27.37
2019-05-01T15:07:43.631Z,29.82
2019-05-01T15:09:43.748Z,30.12
2019-05-01T15:14:08.322Z,27.82
2019-05-01T15:16:25.112Z,27.58
2019-05-01T15:18:33.168Z,29.48
2019-05-01T15:20:36.828Z,51.05
2019-05-01T15:22:40.440Z,80.53
2019-05-01T15:24:44.085Z,60.12
2019-05-01T15:26:47.774Z,53.52
2019-05-01T15:28:51.351Z,39.88
2019-05-01T15:32:57.745Z,38.50
2019-05-01T15:35:01.357Z,36.70
2019-05-01T15:37:05.314Z,33.85
2019-05-01T15:39:11.137Z,30.75
2019-05-01T15:41:22.256Z,29.00
2019-05-01T15:43:27.473Z,30.88
2019-05-01T15:45:31.083Z,30.40
2019-05-01T15:47:34.696Z,33.02
2019-05-01T15:49:38.278Z,32.93
2019-05-01T15:53:45.342Z,31.95
2019-05-01T15:55:49.048Z,33.85
2019-05-01T15:57:52.804Z,32.65
2019-05-01T15:59:56.473Z,33.45
2019-05-01T16:02:00.148Z,32.20
2019-05-01T16:04:04.238Z,32.25
2019-05-01T16:06:08.460Z,33.65
2019-05-01T16:08:12.192Z,36.88
2019-05-01T16:12:37.495Z,35.78
2019-05-01T16:14:41.517Z,35.33
2019-05-01T16:16:45.097Z,33.98
2019-05-01T16:20:51.524Z,38.92
2019-05-01T16:22:55.094Z,34.15
2019-05-01T16:27:01.561Z,41.40
2019-05-01T16:29:05.196Z,57.43
2019-05-01T16:31:08.821Z,45.95
2019-05-01T16:33:12.395Z,57.10
2019-05-01T16:37:18.852Z,81.60
2019-05-01T16:39:24.067Z,48.35
2019-05-01T16:41:29.412Z,40.45
2019-05-01T16:43:32.984Z,39.03
2019-05-01T16:47:39.533Z,43.60
2019-05-01T16:51:46.067Z,37.83
2019-05-01T16:55:52.441Z,40.70
2019-05-01T16:59:58.987Z,42.38
2019-05-01T17:02:04.213Z,36.15
2019-05-01T17:04:09.594Z,37.35
2019-05-01T17:06:27.281Z,36.70
2019-05-01T17:08:49.074Z,35.92
2019-05-01T17:10:53.521Z,37.80
2019-05-01T17:12:57.276Z,37.30
2019-05-01T17:15:00.891Z,36.20
2019-05-01T17:17:06.510Z,38.10
2019-05-01T17:19:10.153Z,35.60
2019-05-01T17:23:16.584Z,33.80
2019-05-01T17:27:23.144Z,34.30
2019-05-01T17:29:26.708Z,33.83
2019-05-01T17:33:33.305Z,34.88
2019-05-01T17:35:41.378Z,34.18
2019-05-01T17:37:42.405Z,36.00
2019-05-01T17:39:46.075Z,33.42
2019-05-01T17:43:52.463Z,32.40
2019-05-01T17:47:59.658Z,31.90
2019-05-01T17:50:03.544Z,30.68
2019-05-01T17:52:07.153Z,30.35
2019-05-01T17:56:15.337Z,31.52
2019-05-01T17:58:18.958Z,27.77
2019-05-01T18:02:46.821Z,28.27
2019-05-01T18:04:52.109Z,28.30
2019-05-01T18:06:55.712Z,28.98
2019-05-01T18:13:06.561Z,30.23
2019-05-01T18:17:13.337Z,31.37
2019-05-01T18:19:17.114Z,31.07
2019-05-01T18:21:20.928Z,33.33
2019-05-01T18:23:47.291Z,33.53
2019-05-01T18:25:49.663Z,33.87
2019-05-01T18:27:55.680Z,34.23
2019-05-01T18:30:01.078Z,34.60
2019-05-01T18:32:08.308Z,34.70
2019-05-01T18:34:11.161Z,33.92
2019-05-01T18:38:26.228Z,35.15
2019-05-01T18:40:37.518Z,34.83
2019-05-01T18:42:41.098Z,37.40
2019-05-01T18:46:49.308Z,35.48
2019-05-01T18:50:56.399Z,36.00
2019-05-01T18:53:00.193Z,35.28
2019-05-01T18:57:07.263Z,36.98
2019-05-01T18:59:10.877Z,37.35
2019-05-01T19:03:17.583Z,33.42
2019-05-01T19:07:23.985Z,35.03
2019-05-01T19:11:32.457Z,35.65
2019-05-01T19:13:36.279Z,34.95
2019-05-01T19:17:42.962Z,35.05
2019-05-01T19:19:46.557Z,34.40
2019-05-01T19:23:53.105Z,31.90
2019-05-01T19:26:03.528Z,32.90
2019-05-01T19:28:03.792Z,33.63
2019-05-01T19:30:09.709Z,33.48
2019-05-01T19:32:14.065Z,32.00
2019-05-01T19:34:17.813Z,32.95
2019-05-01T19:36:21.460Z,33.05
2019-05-01T19:38:29.347Z,31.45
2019-05-01T19:40:32.552Z,31.70
2019-05-01T19:42:35.692Z,30.85
2019-05-01T19:46:42.265Z,31.07
2019-05-01T19:50:50.426Z,29.30
2019-05-01T19:54:56.959Z,29.07
2019-05-01T19:57:02.114Z,28.70
2019-05-01T20:01:08.644Z,29.67
2019-05-01T20:03:12.366Z,28.05
2019-05-01T20:05:16.039Z,30.48
2019-05-01T20:09:24.723Z,28.98
2019-05-01T20:11:28.297Z,29.27
2019-05-01T20:15:35.182Z,29.45
2019-05-01T20:17:38.829Z,28.77
2019-05-01T20:21:45.228Z,27.60
2019-05-01T20:25:55.859Z,28.55
2019-05-01T20:27:57.367Z,28.80
2019-05-01T20:30:01.220Z,29.05
2019-05-01T20:32:04.926Z,29.07
2019-05-01T20:34:11.982Z,30.20
2019-05-01T20:36:13.856Z,29.30
2019-05-01T20:40:20.322Z,28.00
2019-05-01T20:44:26.692Z,29.40
2019-05-01T20:48:33.257Z,29.95
2019-05-01T20:52:39.848Z,29.75
2019-05-01T20:54:43.434Z,30.70
2019-05-01T20:58:57.748Z,32.03
2019-05-01T21:01:01.847Z,31.68
2019-05-01T21:03:05.448Z,31.52
2019-05-01T21:07:30.259Z,30.15
2019-05-01T21:09:46.842Z,32.23
2019-05-01T21:11:47.355Z,31.27
2019-05-01T21:13:50.075Z,32.05
2019-05-01T21:16:01.093Z,32.70
2019-05-01T21:18:01.557Z,32.08
2019-05-01T21:20:06.068Z,32.75
2019-05-01T21:22:09.791Z,31.65
2019-05-01T21:24:13.989Z,33.63
2019-05-01T21:26:17.824Z,32.20
2019-05-01T21:30:24.611Z,32.42
2019-05-01T21:32:28.269Z,32.98
2019-05-01T21:36:36.330Z,33.53
2019-05-01T21:40:43.929Z,33.05
2019-05-01T21:42:54.349Z,32.30
2019-05-01T21:44:53.494Z,34.40
2019-05-01T21:46:57.053Z,33.13
2019-05-01T21:51:07.293Z,34.25
2019-05-01T21:53:08.719Z,33.15
2019-05-01T21:57:17.440Z,34.18
2019-05-01T21:59:20.491Z,33.42
2019-05-01T22:03:26.993Z,33.85
2019-05-01T22:07:33.417Z,34.10
2019-05-01T22:11:40.396Z,34.00
2019-05-01T22:13:44.105Z,32.78
2019-05-01T22:15:49.338Z,33.70
2019-05-01T22:18:06.587Z,33.70
2019-05-01T22:20:12.127Z,33.30
2019-05-01T22:22:17.536Z,33.33
2019-05-01T22:24:25.533Z,33.80
2019-05-01T22:26:33.489Z,33.60
2019-05-01T22:28:44.951Z,32.53
2019-05-01T22:30:50.228Z,33.25
2019-05-01T22:32:55.276Z,32.95
2019-05-01T22:35:06.077Z,34.67
2019-05-01T22:37:09.902Z,32.65
2019-05-01T22:39:13.552Z,31.87
2019-05-01T22:43:19.952Z,31.85
2019-05-01T22:47:27.157Z,32.03
2019-05-01T22:49:30.714Z,32.60
2019-05-01T22:53:37.115Z,33.42
2019-05-01T22:57:43.581Z,32.25
2019-05-01T23:01:52.987Z,32.65
2019-05-01T23:04:01.528Z,32.20
2019-05-01T23:06:06.382Z,31.90
2019-05-01T23:08:10.765Z,30.52
2019-05-01T23:10:14.940Z,30.88
2019-05-01T23:12:18.541Z,32.60
2019-05-01T23:16:28.800Z,30.72
2019-05-01T23:18:32.685Z,30.80
2019-05-01T23:22:40.789Z,29.42
2019-05-01T23:26:47.992Z,28.45
2019-05-01T23:28:52.382Z,28.92
2019-05-01T23:32:58.913Z,27.70
2019-05-01T23:37:05.458Z,27.80
2019-05-01T23:39:09.197Z,25.88
2019-05-01T23:41:12.855Z,26.87
2019-05-01T23:45:19.318Z,24.25
2019-05-01T23:49:25.689Z,24.00
2019-05-01T23:53:33.491Z,22.98
2019-05-01T23:57:39.880Z,21.65
